createdAt,value
2018-11-28T00:00:36.968Z,14.80
2018-11-28T00:01:36.949Z,14.90
2018-11-28T00:02:36.938Z,15.20
2018-11-28T00:03:36.945Z,14.80
2018-11-28T00:04:36.928Z,14.90
2018-11-28T00:05:36.912Z,16.00
2018-11-28T00:06:36.900Z,14.60
2018-11-28T00:07:36.890Z,15.10
2018-11-28T00:08:36.912Z,14.30
2018-11-28T00:09:36.865Z,14.20
2018-11-28T00:10:36.857Z,15.30
2018-11-28T00:11:36.850Z,14.60
2018-11-28T00:12:36.839Z,14.30
2018-11-28T00:13:36.834Z,14.60
2018-11-28T00:14:36.827Z,14.60
2018-11-28T00:15:36.799Z,14.60
2018-11-28T00:16:36.794Z,14.00
2018-11-28T00:17:36.783Z,14.60
2018-11-28T00:18:36.767Z,15.20
2018-11-28T00:19:36.774Z,14.40
2018-11-28T00:20:36.763Z,14.50
2018-11-28T00:21:36.742Z,14.20
2018-11-28T00:22:36.726Z,15.80
2018-11-28T00:23:36.715Z,15.20
2018-11-28T00:24:36.706Z,15.10
2018-11-28T00:25:36.713Z,14.30
2018-11-28T00:26:36.683Z,15.30
2018-11-28T00:27:36.675Z,14.10
2018-11-28T00:28:36.670Z,13.00
2018-11-28T00:29:36.655Z,13.40
2018-11-28T00:30:36.697Z,13.40
2018-11-28T00:31:36.633Z,13.70
2018-11-28T00:32:36.618Z,13.80
2018-11-28T00:33:36.613Z,13.20
2018-11-28T00:34:36.601Z,12.90
2018-11-28T00:35:36.588Z,14.30
2018-11-28T00:36:36.593Z,13.60
2018-11-28T00:37:36.570Z,14.20
2018-11-28T00:38:36.563Z,14.40
2018-11-28T00:39:36.551Z,15.20
2018-11-28T00:40:36.574Z,13.90
2018-11-28T00:41:36.563Z,14.50
2018-11-28T00:42:36.527Z,14.70
2018-11-28T00:43:36.507Z,15.00
2018-11-28T00:44:36.492Z,14.80
2018-11-28T00:45:36.491Z,15.00
2018-11-28T00:46:36.474Z,14.70
2018-11-28T00:47:36.480Z,15.40
2018-11-28T00:48:36.449Z,14.50
2018-11-28T00:49:36.440Z,14.10
2018-11-28T00:50:36.435Z,14.70
2018-11-28T00:51:36.435Z,14.70
2018-11-28T00:52:36.407Z,13.80
2018-11-28T00:53:36.394Z,14.30
2018-11-28T00:54:36.386Z,14.50
2018-11-28T00:55:36.394Z,13.90
2018-11-28T00:56:36.391Z,13.80
2018-11-28T00:57:36.367Z,13.70
2018-11-28T00:58:36.347Z,13.90
2018-11-28T00:59:36.332Z,13.60
2018-11-28T01:00:36.338Z,13.80
2018-11-28T01:01:36.327Z,13.40
2018-11-28T01:02:36.314Z,13.20
2018-11-28T01:03:36.294Z,12.80
2018-11-28T01:04:36.290Z,13.80
2018-11-28T01:05:36.269Z,14.00
2018-11-28T01:06:36.258Z,12.50
2018-11-28T01:07:36.268Z,13.90
2018-11-28T01:08:36.257Z,13.80
2018-11-28T01:09:36.235Z,12.80
2018-11-28T01:10:36.219Z,13.80
2018-11-28T01:11:36.211Z,13.50
2018-11-28T01:12:36.201Z,13.20
2018-11-28T01:13:36.236Z,12.80
2018-11-28T01:14:36.182Z,13.70
2018-11-28T01:15:36.180Z,13.20
2018-11-28T01:16:36.161Z,13.10
2018-11-28T01:17:36.144Z,12.80
2018-11-28T01:18:36.138Z,13.30
2018-11-28T01:19:36.134Z,13.20
2018-11-28T01:20:36.112Z,13.40
2018-11-28T01:21:36.111Z,13.00
2018-11-28T01:22:36.098Z,13.80
2018-11-28T01:23:36.083Z,14.10
2018-11-28T01:24:36.083Z,12.80
2018-11-28T01:25:36.065Z,13.80
2018-11-28T01:26:36.054Z,12.40
2018-11-28T01:27:36.050Z,12.90
2018-11-28T01:28:36.033Z,13.40
2018-11-28T01:29:36.075Z,13.40
2018-11-28T01:30:36.010Z,13.40
2018-11-28T01:31:35.993Z,13.40
2018-11-28T01:32:35.995Z,14.20
2018-11-28T01:33:35.990Z,13.50
2018-11-28T01:34:35.962Z,13.50
2018-11-28T01:35:35.969Z,13.90
2018-11-28T01:36:35.947Z,13.20
2018-11-28T01:37:35.935Z,14.40
2018-11-28T01:38:35.927Z,13.00
2018-11-28T01:39:35.910Z,13.00
2018-11-28T01:40:35.953Z,13.50
2018-11-28T01:41:35.894Z,12.80
2018-11-28T01:42:35.886Z,14.40
2018-11-28T01:43:35.872Z,13.30
2018-11-28T01:44:35.869Z,13.20
2018-11-28T01:45:35.857Z,12.80
2018-11-28T01:46:35.867Z,13.20
2018-11-28T01:47:35.832Z,13.30
2018-11-28T01:48:35.821Z,13.10
2018-11-28T01:49:35.815Z,14.10
2018-11-28T01:50:35.810Z,13.10
2018-11-28T01:51:35.784Z,13.20
2018-11-28T01:52:35.791Z,13.40
2018-11-28T01:53:35.761Z,13.50
2018-11-28T01:54:35.751Z,13.60
2018-11-28T01:55:35.746Z,12.90
2018-11-28T01:56:35.732Z,12.70
2018-11-28T01:57:35.758Z,13.10
2018-11-28T01:58:35.710Z,13.20
2018-11-28T01:59:35.711Z,13.30
2018-11-28T02:00:35.691Z,13.60
2018-11-28T02:01:35.689Z,13.20
2018-11-28T02:02:35.670Z,13.80
2018-11-28T02:03:35.674Z,13.70
2018-11-28T02:04:35.654Z,13.10
2018-11-28T02:05:35.645Z,14.20
2018-11-28T02:06:35.633Z,13.70
2018-11-28T02:07:35.619Z,13.40
2018-11-28T02:08:35.632Z,14.50
2018-11-28T02:09:35.601Z,14.00
2018-11-28T02:10:35.590Z,13.80
2018-11-28T02:11:35.578Z,14.00
2018-11-28T02:12:35.567Z,14.00
2018-11-28T02:13:35.594Z,14.20
2018-11-28T02:14:35.548Z,14.90
2018-11-28T02:15:35.538Z,14.20
2018-11-28T02:16:35.527Z,13.70
2018-11-28T02:17:35.515Z,14.00
2018-11-28T02:18:35.506Z,14.50
2018-11-28T02:19:35.513Z,14.70
2018-11-28T02:20:35.485Z,14.60
2018-11-28T02:21:35.471Z,14.70
2018-11-28T02:22:35.465Z,14.40
2018-11-28T02:23:35.451Z,14.30
2018-11-28T02:24:35.473Z,14.10
2018-11-28T02:25:35.430Z,14.10
2018-11-28T02:26:35.420Z,15.20
2018-11-28T02:27:35.403Z,14.10
2018-11-28T02:28:35.395Z,14.10
2018-11-28T02:29:35.394Z,13.70
2018-11-28T02:30:35.402Z,14.40
2018-11-28T02:31:35.371Z,14.10
2018-11-28T02:32:35.356Z,13.30
2018-11-28T02:33:35.343Z,14.80
2018-11-28T02:34:35.336Z,14.30
2018-11-28T02:35:35.327Z,14.10
2018-11-28T02:36:35.337Z,14.40
2018-11-28T02:37:35.302Z,14.20
2018-11-28T02:38:35.324Z,14.00
2018-11-28T02:39:35.280Z,14.10
2018-11-28T02:40:35.270Z,30.20
2018-11-28T02:41:35.269Z,24.90
2018-11-28T02:42:35.254Z,16.20
2018-11-28T02:43:35.252Z,16.40
2018-11-28T02:44:35.249Z,26.00
2018-11-28T02:45:35.220Z,17.70
2018-11-28T02:46:35.212Z,14.40
2018-11-28T02:47:35.208Z,14.50
2018-11-28T02:48:35.185Z,14.10
2018-11-28T02:49:35.188Z,13.90
2018-11-28T02:50:35.173Z,13.10
2018-11-28T02:51:35.203Z,13.50
2018-11-28T02:52:35.157Z,14.10
2018-11-28T02:53:35.136Z,14.00
2018-11-28T02:54:35.121Z,13.80
2018-11-28T02:55:35.119Z,13.80
2018-11-28T02:56:35.112Z,14.20
2018-11-28T02:57:35.119Z,13.80
2018-11-28T02:58:35.086Z,13.20
2018-11-28T02:59:35.074Z,12.80
2018-11-28T03:00:35.073Z,13.30
2018-11-28T03:01:35.056Z,13.40
2018-11-28T03:02:35.065Z,13.10
2018-11-28T03:03:35.035Z,28.20
2018-11-28T03:04:35.041Z,35.40
2018-11-28T03:05:35.017Z,21.90
2018-11-28T03:06:35.000Z,39.20
2018-11-28T03:07:34.986Z,30.20
2018-11-28T03:08:34.984Z,18.80
2018-11-28T03:09:35.008Z,15.20
2018-11-28T03:10:34.954Z,13.60
2018-11-28T03:11:34.950Z,13.90
2018-11-28T03:12:34.932Z,13.80
2018-11-28T03:13:34.922Z,13.00
2018-11-28T03:14:34.916Z,13.50
2018-11-28T03:15:34.916Z,13.00
2018-11-28T03:16:34.902Z,13.60
2018-11-28T03:17:34.880Z,13.60
2018-11-28T03:18:34.875Z,13.60
2018-11-28T03:19:34.861Z,13.20
2018-11-28T03:20:34.865Z,12.90
2018-11-28T03:21:34.847Z,13.20
2018-11-28T03:22:34.844Z,14.00
2018-11-28T03:23:34.819Z,12.80
2018-11-28T03:24:34.815Z,13.90
2018-11-28T03:25:34.797Z,13.30
2018-11-28T03:26:34.797Z,13.00
2018-11-28T03:27:34.788Z,27.20
2018-11-28T03:28:34.772Z,48.20
2018-11-28T03:29:34.755Z,33.40
2018-11-28T03:30:34.742Z,29.70
2018-11-28T03:31:34.787Z,21.90
2018-11-28T03:32:34.730Z,15.40
2018-11-28T03:33:34.714Z,13.90
2018-11-28T03:34:34.705Z,13.90
2018-11-28T03:35:34.693Z,12.90
2018-11-28T03:36:34.681Z,12.90
2018-11-28T03:37:34.686Z,12.90
2018-11-28T03:38:34.654Z,13.40
2018-11-28T03:39:34.643Z,12.50
2018-11-28T03:40:34.633Z,13.00
2018-11-28T03:41:34.629Z,12.30
2018-11-28T03:42:34.638Z,12.80
2018-11-28T03:43:34.622Z,12.70
2018-11-28T03:44:34.597Z,12.40
2018-11-28T03:45:34.596Z,12.40
2018-11-28T03:47:23.478Z,11.90
2018-11-28T03:48:23.517Z,13.00
2018-11-28T03:49:23.453Z,13.10
2018-11-28T03:50:23.460Z,13.20
2018-11-28T03:51:23.429Z,12.90
2018-11-28T03:52:23.428Z,13.60
2018-11-28T03:53:23.416Z,12.90
2018-11-28T03:54:23.404Z,13.40
2018-11-28T03:55:23.415Z,12.90
2018-11-28T03:56:23.377Z,13.20
2018-11-28T03:57:23.373Z,13.10
2018-11-28T03:58:23.356Z,13.30
2018-11-28T03:59:23.352Z,12.60
2018-11-28T04:00:23.355Z,13.00
2018-11-28T04:01:23.343Z,13.30
2018-11-28T04:02:23.321Z,12.80
2018-11-28T04:03:23.309Z,13.50
2018-11-28T04:04:23.299Z,13.00
2018-11-28T04:05:23.297Z,12.70
2018-11-28T04:06:23.283Z,12.80
2018-11-28T04:07:23.262Z,13.30
2018-11-28T04:08:23.251Z,12.80
2018-11-28T04:09:23.248Z,13.30
2018-11-28T04:10:23.285Z,13.00
2018-11-28T04:11:23.234Z,12.80
2018-11-28T04:12:23.697Z,13.30
2018-11-28T04:13:23.209Z,13.20
2018-11-28T04:14:23.189Z,12.70
2018-11-28T04:15:23.179Z,13.60
2018-11-28T04:16:23.174Z,13.20
2018-11-28T04:17:23.176Z,13.00
2018-11-28T04:18:23.171Z,12.70
2018-11-28T04:19:23.136Z,13.10
2018-11-28T04:20:23.139Z,12.70
2018-11-28T04:21:23.118Z,13.00
2018-11-28T04:22:23.109Z,13.10
2018-11-28T04:23:23.104Z,13.30
2018-11-28T04:24:23.097Z,13.60
2018-11-28T04:25:23.076Z,12.80
2018-11-28T04:26:23.062Z,12.80
2018-11-28T04:27:23.069Z,12.90
2018-11-28T04:28:23.080Z,13.70
2018-11-28T04:29:23.040Z,13.40
2018-11-28T04:30:23.033Z,13.00
2018-11-28T04:31:23.014Z,13.00
2018-11-28T04:32:23.000Z,13.40
2018-11-28T04:33:22.990Z,13.50
2018-11-28T04:34:22.997Z,12.90
2018-11-28T04:35:22.998Z,13.30
2018-11-28T04:36:22.971Z,12.70
2018-11-28T04:37:22.952Z,12.60
2018-11-28T04:38:22.935Z,13.00
2018-11-28T04:39:22.952Z,13.50
2018-11-28T04:40:22.942Z,12.80
2018-11-28T04:41:22.913Z,13.40
2018-11-28T04:42:22.901Z,13.00
2018-11-28T04:43:22.884Z,13.00
2018-11-28T04:44:22.878Z,13.50
2018-11-28T04:45:22.948Z,13.10
2018-11-28T04:46:22.856Z,13.50
2018-11-28T04:47:22.849Z,12.90
2018-11-28T04:48:22.832Z,14.10
2018-11-28T04:49:22.819Z,13.60
2018-11-28T04:50:22.830Z,13.50
2018-11-28T04:51:22.802Z,12.60
2018-11-28T04:52:22.792Z,13.50
2018-11-28T04:53:22.790Z,13.30
2018-11-28T04:54:22.781Z,13.00
2018-11-28T04:55:22.773Z,12.90
2018-11-28T04:56:22.744Z,13.00
2018-11-28T04:57:22.741Z,13.30
2018-11-28T04:58:22.729Z,14.20
2018-11-28T04:59:22.755Z,13.00
2018-11-28T05:00:22.724Z,13.20
2018-11-28T05:01:22.700Z,13.70
2018-11-28T05:02:22.688Z,14.30
2018-11-28T05:03:22.682Z,13.50
2018-11-28T05:04:22.659Z,13.60
2018-11-28T05:05:22.692Z,13.50
2018-11-28T05:06:22.642Z,14.30
2018-11-28T05:07:22.634Z,15.00
2018-11-28T05:08:22.617Z,14.90
2018-11-28T05:09:22.606Z,14.00
2018-11-28T05:10:22.618Z,14.80
2018-11-28T05:11:22.591Z,14.70
2018-11-28T05:12:22.594Z,14.50
2018-11-28T05:13:22.564Z,14.80
2018-11-28T05:14:22.572Z,15.70
2018-11-28T05:15:22.563Z,15.30
2018-11-28T05:16:22.533Z,14.80
2018-11-28T05:17:22.530Z,16.10
2018-11-28T05:18:22.515Z,14.70
2018-11-28T05:19:22.538Z,15.80
2018-11-28T05:20:22.497Z,15.70
2018-11-28T05:21:22.485Z,15.80
2018-11-28T05:22:22.472Z,15.50
2018-11-28T05:23:22.464Z,16.20
2018-11-28T05:24:22.446Z,16.60
2018-11-28T05:25:22.491Z,16.70
2018-11-28T05:26:22.425Z,17.20
2018-11-28T05:27:22.419Z,17.80
2018-11-28T05:28:22.411Z,18.00
2018-11-28T05:29:22.395Z,18.40
2018-11-28T05:30:22.389Z,18.70
2018-11-28T05:31:22.385Z,18.30
2018-11-28T05:32:22.403Z,18.50
2018-11-28T05:33:22.355Z,18.70
2018-11-28T05:34:22.339Z,18.40
2018-11-28T05:35:22.336Z,19.60
2018-11-28T05:36:22.330Z,19.40
2018-11-28T05:37:22.312Z,19.10
2018-11-28T05:38:22.296Z,18.10
2018-11-28T05:39:22.297Z,18.80
2018-11-28T05:40:22.280Z,19.70
2018-11-28T05:41:22.283Z,19.30
2018-11-28T05:42:22.259Z,19.90
2018-11-28T05:43:22.249Z,19.40
2018-11-28T05:44:22.239Z,19.50
2018-11-28T05:45:22.234Z,20.10
2018-11-28T05:46:22.228Z,18.60
2018-11-28T05:47:22.211Z,19.40
2018-11-28T05:48:22.229Z,19.20
2018-11-28T05:49:22.190Z,19.80
2018-11-28T05:50:22.171Z,19.10
2018-11-28T05:51:22.163Z,19.60
2018-11-28T05:52:22.151Z,21.50
2018-11-28T05:53:22.144Z,20.20
2018-11-28T05:54:22.172Z,20.60
2018-11-28T05:55:22.121Z,20.50
2018-11-28T05:56:22.105Z,20.20
2018-11-28T05:57:22.103Z,20.10
2018-11-28T05:58:22.090Z,20.50
2018-11-28T05:59:27.131Z,20.80
2018-11-28T06:00:23.075Z,20.30
2018-11-28T06:01:22.057Z,20.70
2018-11-28T06:02:22.046Z,20.60
2018-11-28T06:03:22.041Z,21.10
2018-11-28T06:04:22.025Z,20.60
2018-11-28T06:05:22.048Z,20.90
2018-11-28T06:06:22.005Z,21.40
2018-11-28T06:07:21.993Z,21.50
2018-11-28T06:08:22.010Z,21.50
2018-11-28T06:09:21.984Z,21.30
2018-11-28T06:10:21.961Z,20.90
2018-11-28T06:11:21.958Z,21.20
2018-11-28T06:12:21.945Z,21.60
2018-11-28T06:13:21.927Z,21.90
2018-11-28T06:14:21.914Z,21.80
2018-11-28T06:15:21.918Z,22.20
2018-11-28T06:16:21.901Z,21.40
2018-11-28T06:17:21.893Z,21.90
2018-11-28T06:18:21.874Z,22.40
2018-11-28T06:19:21.866Z,22.00
2018-11-28T06:20:21.854Z,22.80
2018-11-28T06:21:21.857Z,21.40
2018-11-28T06:22:21.840Z,23.10
2018-11-28T06:23:21.843Z,23.00
2018-11-28T06:24:21.809Z,23.50
2018-11-28T06:25:21.797Z,22.90
2018-11-28T06:26:21.792Z,23.60
2018-11-28T06:27:21.793Z,24.10
2018-11-28T06:28:21.790Z,24.50
2018-11-28T06:29:21.763Z,23.60
2018-11-28T06:30:21.744Z,24.40
2018-11-28T06:31:21.735Z,23.60
2018-11-28T06:32:21.763Z,23.80
2018-11-28T06:33:21.717Z,24.20
2018-11-28T06:34:21.710Z,24.00
2018-11-28T06:35:21.707Z,23.80
2018-11-28T06:36:21.687Z,23.60
2018-11-28T06:37:21.680Z,22.80
2018-11-28T06:38:21.671Z,22.90
2018-11-28T06:39:21.650Z,23.20
2018-11-28T06:40:24.192Z,22.40
2018-11-28T06:41:21.629Z,22.90
2018-11-28T06:42:21.623Z,22.90
2018-11-28T06:43:21.607Z,22.00
2018-11-28T06:44:21.604Z,22.80
2018-11-28T06:45:21.591Z,21.70
2018-11-28T06:46:21.585Z,22.40
2018-11-28T06:47:21.566Z,23.40
2018-11-28T06:48:21.563Z,21.30
2018-11-28T06:49:21.558Z,22.40
2018-11-28T06:50:21.535Z,22.90
2018-11-28T06:51:21.523Z,23.60
2018-11-28T06:52:21.522Z,22.10
2018-11-28T06:53:21.518Z,23.60
2018-11-28T06:54:21.496Z,24.40
2018-11-28T06:55:21.513Z,24.10
2018-11-28T06:56:21.474Z,23.60
2018-11-28T06:57:21.459Z,23.30
2018-11-28T06:58:21.459Z,24.00
2018-11-28T06:59:21.437Z,24.20
2018-11-28T07:00:21.448Z,24.60
2018-11-28T07:01:21.425Z,24.00
2018-11-28T07:02:21.413Z,25.30
2018-11-28T07:03:21.401Z,24.70
2018-11-28T07:04:21.397Z,24.50
2018-11-28T07:05:21.391Z,25.40
2018-11-28T07:06:21.370Z,25.50
2018-11-28T07:07:21.354Z,25.40
2018-11-28T07:08:21.346Z,25.90
2018-11-28T07:09:21.339Z,26.70
2018-11-28T07:10:21.365Z,25.00
2018-11-28T07:11:21.329Z,25.20
2018-11-28T07:12:21.306Z,24.90
2018-11-28T07:13:21.297Z,26.50
2018-11-28T07:14:21.288Z,25.60
2018-11-28T07:15:21.269Z,25.70
2018-11-28T07:16:21.277Z,24.50
2018-11-28T07:17:21.267Z,25.50
2018-11-28T07:18:21.244Z,24.90
2018-11-28T07:19:21.233Z,24.40
2018-11-28T07:20:21.219Z,24.20
2018-11-28T07:21:21.226Z,23.20
2018-11-28T07:22:21.198Z,23.40
2018-11-28T07:23:21.238Z,24.40
2018-11-28T07:24:21.175Z,23.90
2018-11-28T07:25:21.165Z,23.10
2018-11-28T07:26:21.159Z,22.20
2018-11-28T07:27:21.149Z,22.90
2018-11-28T07:28:21.149Z,23.50
2018-11-28T07:29:21.164Z,23.50
2018-11-28T07:30:21.141Z,23.20
2018-11-28T07:31:21.103Z,23.70
2018-11-28T07:32:21.113Z,22.50
2018-11-28T07:33:21.087Z,24.00
2018-11-28T07:34:21.071Z,22.70
2018-11-28T07:35:21.099Z,23.80
2018-11-28T07:36:21.047Z,22.60
2018-11-28T07:37:21.038Z,23.80
2018-11-28T07:38:21.034Z,23.40
2018-11-28T07:39:21.026Z,25.20
2018-11-28T07:40:21.063Z,24.50
2018-11-28T07:41:20.996Z,24.40
2018-11-28T07:42:20.984Z,23.90
2018-11-28T07:43:20.979Z,23.80
2018-11-28T07:44:21.014Z,24.20
2018-11-28T07:45:20.957Z,23.40
2018-11-28T07:46:20.955Z,23.80
2018-11-28T07:47:20.930Z,23.50
2018-11-28T07:48:20.921Z,23.30
2018-11-28T07:49:20.917Z,22.70
2018-11-28T07:50:20.969Z,23.00
2018-11-28T07:51:20.891Z,23.40
2018-11-28T07:52:20.884Z,21.80
2018-11-28T07:53:20.873Z,22.30
2018-11-28T07:54:20.862Z,22.10
2018-11-28T07:55:20.853Z,23.70
2018-11-28T07:56:20.973Z,21.90
2018-11-28T07:57:20.835Z,23.10
2018-11-28T07:58:20.822Z,22.30
2018-11-28T07:59:20.805Z,22.10
2018-11-28T08:00:20.811Z,22.30
2018-11-28T08:01:20.804Z,21.20
2018-11-28T08:02:20.773Z,22.50
2018-11-28T08:03:20.775Z,21.80
2018-11-28T08:04:21.036Z,21.70
2018-11-28T08:05:20.804Z,23.00
2018-11-28T08:06:20.730Z,20.80
2018-11-28T08:07:20.773Z,22.00
2018-11-28T08:08:20.783Z,22.50
2018-11-28T08:09:20.712Z,22.70
2018-11-28T08:10:20.721Z,21.60
2018-11-28T08:11:20.718Z,22.00
2018-11-28T08:12:20.675Z,21.70
2018-11-28T08:13:20.661Z,22.40
2018-11-28T08:14:20.655Z,21.40
2018-11-28T08:15:20.652Z,22.70
2018-11-28T08:16:20.633Z,21.80
2018-11-28T08:17:20.627Z,21.10
2018-11-28T08:18:20.610Z,20.50
2018-11-28T08:19:23.971Z,21.00
2018-11-28T08:20:20.592Z,21.50
2018-11-28T08:21:20.579Z,21.70
2018-11-28T08:22:20.567Z,20.10
2018-11-28T08:23:20.553Z,19.50
2018-11-28T08:24:20.543Z,19.70
2018-11-28T08:25:20.543Z,20.20
2018-11-28T08:26:20.527Z,19.20
2018-11-28T08:27:20.696Z,19.80
2018-11-28T08:28:20.559Z,18.60
2018-11-28T08:29:20.489Z,19.60
2018-11-28T08:30:20.487Z,19.50
2018-11-28T08:31:20.477Z,19.10
2018-11-28T08:32:20.457Z,18.00
2018-11-28T08:33:20.451Z,18.40
2018-11-28T08:34:20.487Z,17.30
2018-11-28T08:35:20.429Z,17.80
2018-11-28T08:36:20.413Z,17.60
2018-11-28T08:37:20.404Z,17.10
2018-11-28T08:38:20.402Z,17.50
2018-11-28T08:39:20.385Z,17.30
2018-11-28T08:40:20.391Z,16.80
2018-11-28T08:41:20.364Z,17.00
2018-11-28T08:42:20.355Z,17.50
2018-11-28T08:43:20.342Z,17.90
2018-11-28T08:44:20.334Z,16.60
2018-11-28T08:45:20.456Z,16.60
2018-11-28T08:46:20.324Z,16.30
2018-11-28T08:47:20.302Z,17.10
2018-11-28T08:48:20.292Z,17.20
2018-11-28T08:49:20.280Z,17.20
2018-11-28T08:50:20.270Z,17.10
2018-11-28T08:51:20.274Z,16.50
2018-11-28T08:52:20.250Z,16.00
2018-11-28T08:53:20.237Z,17.60
2018-11-28T08:54:20.226Z,17.10
2018-11-28T08:55:20.215Z,17.20
2018-11-28T08:56:20.235Z,16.30
2018-11-28T08:57:20.194Z,16.80
2018-11-28T08:58:20.191Z,15.90
2018-11-28T08:59:20.172Z,16.80
2018-11-28T09:00:20.161Z,15.70
2018-11-28T09:01:20.152Z,16.60
2018-11-28T09:02:20.166Z,16.10
2018-11-28T09:03:20.124Z,16.00
2018-11-28T09:04:20.123Z,15.60
2018-11-28T09:05:20.108Z,15.80
2018-11-28T09:06:20.101Z,17.10
2018-11-28T09:07:20.084Z,15.40
2018-11-28T09:08:20.135Z,15.80
2018-11-28T09:09:20.063Z,15.20
2018-11-28T09:10:20.066Z,14.70
2018-11-28T09:11:20.053Z,16.40
2018-11-28T09:12:20.029Z,14.80
2018-11-28T09:13:20.029Z,15.20
2018-11-28T09:14:20.009Z,15.80
2018-11-28T09:15:20.007Z,15.40
2018-11-28T09:16:19.986Z,15.10
2018-11-28T09:17:19.987Z,14.90
2018-11-28T09:18:19.986Z,15.10
2018-11-28T09:19:19.991Z,15.40
2018-11-28T09:20:19.942Z,15.60
2018-11-28T09:21:19.945Z,15.60
2018-11-28T09:22:19.927Z,15.60
2018-11-28T09:23:19.919Z,15.40
2018-11-28T09:24:19.904Z,15.40
2018-11-28T09:25:19.899Z,15.40
2018-11-28T09:26:19.885Z,15.20
2018-11-28T09:27:19.881Z,15.10
2018-11-28T09:28:19.862Z,15.80
2018-11-28T09:29:19.848Z,14.60
2018-11-28T09:30:19.891Z,14.50
2018-11-28T09:31:19.826Z,14.80
2018-11-28T09:32:19.821Z,14.10
2018-11-28T09:33:19.805Z,14.40
2018-11-28T09:34:19.809Z,14.30
2018-11-28T09:35:19.796Z,14.40
2018-11-28T09:36:19.802Z,13.80
2018-11-28T09:37:19.760Z,14.40
2018-11-28T09:38:19.751Z,14.50
2018-11-28T09:39:19.745Z,14.30
2018-11-28T09:40:19.727Z,14.10
2018-11-28T09:41:19.720Z,14.10
2018-11-28T09:42:19.724Z,14.80
2018-11-28T09:43:19.704Z,14.90
2018-11-28T09:44:19.684Z,14.00
2018-11-28T09:45:19.680Z,13.40
2018-11-28T09:46:19.667Z,12.80
2018-11-28T09:47:19.659Z,13.00
2018-11-28T09:48:19.669Z,12.80
2018-11-28T09:49:19.643Z,13.40
2018-11-28T09:50:19.621Z,13.10
2018-11-28T09:51:19.620Z,12.90
2018-11-28T09:52:19.605Z,12.70
2018-11-28T09:53:19.650Z,13.30
2018-11-28T09:54:19.579Z,12.70
2018-11-28T09:55:19.579Z,13.20
2018-11-28T09:56:19.560Z,12.80
2018-11-28T09:57:19.557Z,11.70
2018-11-28T09:58:19.547Z,12.20
2018-11-28T09:59:19.531Z,11.60
2018-11-28T10:00:19.518Z,12.00
2018-11-28T10:01:19.515Z,12.00
2018-11-28T10:02:19.497Z,12.00
2018-11-28T10:03:19.504Z,11.60
2018-11-28T10:04:19.476Z,10.70
2018-11-28T10:05:19.488Z,11.60
2018-11-28T10:06:19.457Z,10.70
2018-11-28T10:07:19.447Z,10.10
2018-11-28T10:08:19.441Z,10.40
2018-11-28T10:09:19.430Z,9.70
2018-11-28T10:10:19.407Z,9.80
2018-11-28T10:11:19.440Z,9.20
2018-11-28T10:12:19.834Z,9.60
2018-11-28T10:13:19.410Z,9.80
2018-11-28T10:14:19.371Z,9.40
2018-11-28T10:15:19.370Z,9.40
2018-11-28T10:16:19.349Z,9.00
2018-11-28T10:17:19.338Z,9.40
2018-11-28T10:18:19.321Z,9.50
2018-11-28T10:19:19.339Z,9.40
2018-11-28T10:20:19.310Z,9.40
2018-11-28T10:21:19.289Z,9.30
2018-11-28T10:22:19.292Z,9.20
2018-11-28T10:23:19.268Z,8.60
2018-11-28T10:24:19.318Z,9.20
2018-11-28T10:25:19.266Z,8.60
2018-11-28T10:26:19.252Z,8.60
2018-11-28T10:27:19.239Z,8.70
2018-11-28T10:28:19.253Z,9.10
2018-11-28T10:29:19.223Z,9.00
2018-11-28T10:30:19.211Z,9.00
2018-11-28T10:31:19.194Z,8.80
2018-11-28T10:32:19.172Z,8.60
2018-11-28T10:33:19.159Z,8.70
2018-11-28T10:34:19.161Z,8.60
2018-11-28T10:35:19.144Z,8.70
2018-11-28T10:36:19.151Z,8.40
2018-11-28T10:37:19.116Z,8.60
2018-11-28T10:38:19.108Z,8.70
2018-11-28T10:39:19.112Z,8.70
2018-11-28T10:40:19.091Z,8.60
2018-11-28T10:41:19.089Z,8.90
2018-11-28T10:42:19.064Z,8.60
2018-11-28T10:43:19.057Z,8.70
2018-11-28T10:44:19.049Z,8.70
2018-11-28T10:45:19.036Z,8.20
2018-11-28T10:46:19.037Z,9.40
2018-11-28T10:47:19.015Z,8.70
2018-11-28T10:48:18.999Z,9.10
2018-11-28T10:49:18.987Z,8.60
2018-11-28T10:50:18.993Z,8.40
2018-11-28T10:51:19.009Z,8.50
2018-11-28T10:52:18.962Z,8.60
2018-11-28T10:53:18.946Z,8.50
2018-11-28T10:54:18.949Z,8.80
2018-11-28T10:55:18.924Z,8.20
2018-11-28T10:56:18.926Z,8.10
2018-11-28T10:57:18.925Z,7.80
2018-11-28T10:58:18.900Z,8.80
2018-11-28T10:59:18.881Z,8.30
2018-11-28T11:00:18.871Z,8.40
2018-11-28T11:01:18.860Z,8.60
2018-11-28T11:02:18.951Z,8.70
2018-11-28T11:03:18.848Z,8.60
2018-11-28T11:04:18.830Z,8.10
2018-11-28T11:05:18.815Z,8.30
2018-11-28T11:06:18.821Z,8.90
2018-11-28T11:07:18.804Z,8.80
2018-11-28T11:08:18.792Z,8.10
2018-11-28T11:09:18.777Z,8.20
2018-11-28T11:10:18.765Z,8.00
2018-11-28T11:11:18.760Z,8.20
2018-11-28T11:12:18.792Z,8.80
2018-11-28T11:13:18.735Z,8.30
2018-11-28T11:14:18.731Z,7.90
2018-11-28T11:15:18.711Z,8.20
2018-11-28T11:16:18.701Z,7.70
2018-11-28T11:17:18.693Z,8.20
2018-11-28T11:18:18.688Z,8.10
2018-11-28T11:19:18.684Z,7.80
2018-11-28T11:20:18.688Z,7.90
2018-11-28T11:21:18.656Z,7.60
2018-11-28T11:22:18.637Z,7.20
2018-11-28T11:23:18.645Z,7.40
2018-11-28T11:24:18.653Z,7.20
2018-11-28T11:25:18.609Z,7.40
2018-11-28T11:26:18.599Z,7.00
2018-11-28T11:27:18.582Z,7.80
2018-11-28T11:28:18.569Z,7.20
2018-11-28T11:29:18.561Z,7.30
2018-11-28T11:30:18.556Z,7.30
2018-11-28T11:31:18.545Z,7.00
2018-11-28T11:32:18.525Z,7.30
2018-11-28T11:33:18.521Z,7.40
2018-11-28T11:34:18.509Z,7.40
2018-11-28T11:35:18.515Z,7.70
2018-11-28T11:36:18.482Z,7.80
2018-11-28T11:37:18.483Z,7.80
2018-11-28T11:38:18.461Z,7.80
2018-11-28T11:39:18.506Z,7.30
2018-11-28T11:40:18.491Z,7.70
2018-11-28T11:41:18.470Z,7.80
2018-11-28T11:42:18.422Z,7.70
2018-11-28T11:43:18.405Z,7.80
2018-11-28T11:44:18.401Z,7.60
2018-11-28T11:45:18.385Z,8.00
2018-11-28T11:46:18.380Z,8.50
2018-11-28T11:47:18.379Z,8.00
2018-11-28T11:48:18.353Z,7.70
2018-11-28T11:49:18.348Z,7.80
2018-11-28T11:50:18.337Z,8.30
2018-11-28T11:51:18.341Z,8.10
2018-11-28T11:52:18.315Z,7.80
2018-11-28T11:53:18.301Z,7.90
2018-11-28T11:54:18.331Z,7.90
2018-11-28T11:55:18.283Z,8.00
2018-11-28T11:56:18.267Z,7.60
2018-11-28T11:57:18.296Z,8.40
2018-11-28T11:58:18.294Z,7.30
2018-11-28T11:59:18.240Z,8.10
2018-11-28T12:00:18.223Z,7.70
2018-11-28T12:01:18.263Z,7.80
2018-11-28T12:02:18.203Z,7.40
2018-11-28T12:03:18.208Z,7.80
2018-11-28T12:04:18.187Z,7.30
2018-11-28T12:05:18.171Z,7.60
2018-11-28T12:06:18.161Z,8.10
2018-11-28T12:07:18.155Z,7.20
2018-11-28T12:08:18.245Z,7.90
2018-11-28T12:09:18.125Z,7.50
2018-11-28T12:10:18.122Z,7.70
2018-11-28T12:11:18.118Z,7.00
2018-11-28T12:12:18.097Z,7.40
2018-11-28T12:13:18.090Z,7.40
2018-11-28T12:14:18.083Z,7.10
2018-11-28T12:15:18.060Z,7.20
2018-11-28T12:16:21.489Z,8.00
2018-11-28T12:17:18.058Z,7.10
2018-11-28T12:18:18.034Z,7.50
2018-11-28T12:19:18.073Z,8.10
2018-11-28T12:20:18.006Z,7.40
2018-11-28T12:21:17.999Z,7.70
2018-11-28T12:22:17.993Z,8.30
2018-11-28T12:23:18.015Z,8.20
2018-11-28T12:24:17.972Z,8.00
2018-11-28T12:25:17.963Z,7.90
2018-11-28T12:26:17.942Z,8.10
2018-11-28T12:27:17.935Z,7.90
2018-11-28T12:28:17.921Z,7.80
2018-11-28T12:29:17.912Z,7.70
2018-11-28T12:30:17.951Z,8.10
2018-11-28T12:31:17.890Z,8.20
2018-11-28T12:32:17.878Z,7.90
2018-11-28T12:33:17.861Z,8.40
2018-11-28T12:34:17.861Z,8.00
2018-11-28T12:35:17.844Z,7.90
2018-11-28T12:36:17.846Z,8.40
2018-11-28T12:37:18.199Z,7.90
2018-11-28T12:38:17.813Z,8.10
2018-11-28T12:39:17.795Z,7.90
2018-11-28T12:40:17.792Z,8.00
2018-11-28T12:41:17.800Z,7.90
2018-11-28T12:42:17.777Z,8.20
2018-11-28T12:43:17.836Z,8.10
2018-11-28T12:44:17.742Z,7.60
2018-11-28T12:45:17.738Z,7.30
2018-11-28T12:46:17.746Z,7.60
2018-11-28T12:47:17.734Z,7.70
2018-11-28T12:48:17.707Z,7.30
2018-11-28T12:49:17.685Z,7.70
2018-11-28T12:50:17.687Z,7.40
2018-11-28T12:51:17.669Z,7.60
2018-11-28T12:52:17.659Z,7.40
2018-11-28T12:53:17.658Z,7.60
2018-11-28T12:54:17.632Z,7.50
2018-11-28T12:55:17.627Z,7.80
2018-11-28T12:56:17.610Z,7.40
2018-11-28T12:57:17.602Z,7.10
2018-11-28T12:58:17.599Z,7.10
2018-11-28T12:59:17.588Z,7.30